Collinston, Utah
Current Conditions -  °F | °C
As of 6:51 PM on Saturday 25 Oct 2014 (Local Time) from KLGU Reporting Station
Clear Clear  
Wind Chill: 65°   Ceiling: Unl
Heat Index: 65°   Visibility: 10mi
Dew Point: 38°   Wind: 3mph
Humidity: 37%   Direction: 140°SE
Pressure: 29.88"   Gusts: NA
Location:  41.79°N, 112.07°W
Report Text: KLGU 260051Z AUTO 14003KT 10SM CLR 18/03 A2988 RMK AO2 SLP098 T01830033 TSNO
Loading
Personal Weather Stations






























Interactive Weather Map
Tropical Storm Tracking
New forecast layout! Learn more

10-Day Weather Forecast

Advertisements
Track Severe Weather on mobile